Skip Navigation Links Skip Navigation Links

Current Weather

Sparta Community-Hunter Field, Sparta, Ill.

For information only: do not use for flight planning or navigation.
Latest weather
Observation time Thursday, January 27, 2022 11:55 PM CST
Local time Friday, January 28, 2022 12:18 AM CST
Flight conditions Visual Meteorological Conditions
Winds
Wind direction West-Northwest (300°)
Wind speed 6 mph
Visibility 10 mi.
Sky condition
Ceiling unlimited
Sky clear
Temperature 32°F
Dewpoint 25°F
Altimeter 30.28 in.Hg
Derived measurements
Relative humidity 74%
Wind chill 26°F
Density altitude -1637 ft.
Climate data
Remarks
Fully automated report.
Automated weather observing station with precipitation discriminator.
METAR KSAR 280555Z AUTO 30005KT 10SM CLR 00/M04 A3028 RMK AO2 T00001040 10020 20000

Settings

Location code

InnerDrive.Weather 4.0.6770.0 Release CLR 4.0.30319.42000
Copyright ©2018 Inner Drive Technology. All rights reserved. Portions Copyright ©1986-2018 David Braverman.

Find weather

Site navigation


Skip Navigation Links

Place info

Page info

PayPal - The safer, easier way to pay online!

Return home.

Copyright ©2022 Inner Drive Technology. Purveyors of fine, hand-crafted computer software. Page printed 2022-01-28T06:18:13 UTC.